sensor_id;sensor_type;location;lat;lon;timestamp;P1;durP1;ratioP1;P2;durP2;ratioP2
73840;SDS011;62183;49.006;12.102;2022-08-21T00:02:00;13.48;;;12.07;;
73840;SDS011;62183;49.006;12.102;2022-08-21T00:04:26;13.97;;;11.17;;
73840;SDS011;62183;49.006;12.102;2022-08-21T00:06:51;14.40;;;12.00;;
73840;SDS011;62183;49.006;12.102;2022-08-21T00:09:16;13.82;;;12.32;;
73840;SDS011;62183;49.006;12.102;2022-08-21T00:11:42;12.40;;;11.10;;
73840;SDS011;62183;49.006;12.102;2022-08-21T00:14:08;11.70;;;10.47;;
73840;SDS011;62183;49.006;12.102;2022-08-21T00:16:33;14.02;;;11.95;;
73840;SDS011;62183;49.006;12.102;2022-08-21T00:18:58;16.67;;;12.00;;
73840;SDS011;62183;49.006;12.102;2022-08-21T00:21:23;13.50;;;12.10;;
73840;SDS011;62183;49.006;12.102;2022-08-21T00:23:49;18.77;;;12.27;;
73840;SDS011;62183;49.006;12.102;2022-08-21T00:26:14;13.87;;;11.80;;
73840;SDS011;62183;49.006;12.102;2022-08-21T00:28:39;13.97;;;12.07;;
73840;SDS011;62183;49.006;12.102;2022-08-21T00:31:04;13.23;;;11.70;;
73840;SDS011;62183;49.006;12.102;2022-08-21T00:33:30;14.00;;;11.45;;
73840;SDS011;62183;49.006;12.102;2022-08-21T00:35:56;13.02;;;11.18;;
73840;SDS011;62183;49.006;12.102;2022-08-21T00:38:21;15.60;;;12.17;;
73840;SDS011;62183;49.006;12.102;2022-08-21T00:40:47;13.33;;;10.87;;
73840;SDS011;62183;49.006;12.102;2022-08-21T00:43:14;13.20;;;11.63;;
73840;SDS011;62183;49.006;12.102;2022-08-21T00:45:40;15.52;;;11.68;;
73840;SDS011;62183;49.006;12.102;2022-08-21T00:48:05;12.95;;;11.27;;
73840;SDS011;62183;49.006;12.102;2022-08-21T00:50:31;15.40;;;11.37;;
73840;SDS011;62183;49.006;12.102;2022-08-21T00:52:57;13.50;;;11.23;;
73840;SDS011;62183;49.006;12.102;2022-08-21T00:55:23;12.90;;;11.48;;
73840;SDS011;62183;49.006;12.102;2022-08-21T00:57:49;13.20;;;11.75;;
73840;SDS011;62183;49.006;12.102;2022-08-21T01:00:16;15.20;;;12.30;;
73840;SDS011;62183;49.006;12.102;2022-08-21T01:02:42;13.35;;;11.43;;
73840;SDS011;62183;49.006;12.102;2022-08-21T01:05:08;13.75;;;11.88;;
73840;SDS011;62183;49.006;12.102;2022-08-21T01:07:33;14.32;;;11.65;;
73840;SDS011;62183;49.006;12.102;2022-08-21T01:09:58;12.45;;;10.90;;
73840;SDS011;62183;49.006;12.102;2022-08-21T01:12:24;12.90;;;11.43;;
73840;SDS011;62183;49.006;12.102;2022-08-21T01:14:49;12.65;;;10.70;;
73840;SDS011;62183;49.006;12.102;2022-08-21T01:17:15;15.40;;;11.38;;
73840;SDS011;62183;49.006;12.102;2022-08-21T01:19:40;16.58;;;11.88;;
73840;SDS011;62183;49.006;12.102;2022-08-21T01:22:05;22.23;;;12.30;;
73840;SDS011;62183;49.006;12.102;2022-08-21T01:24:30;15.07;;;12.15;;
73840;SDS011;62183;49.006;12.102;2022-08-21T01:26:56;14.10;;;12.00;;
73840;SDS011;62183;49.006;12.102;2022-08-21T01:29:28;16.95;;;12.57;;
73840;SDS011;62183;49.006;12.102;2022-08-21T01:31:54;13.98;;;11.25;;
73840;SDS011;62183;49.006;12.102;2022-08-21T01:34:19;14.20;;;10.83;;
73840;SDS011;62183;49.006;12.102;2022-08-21T01:36:45;16.15;;;12.05;;
73840;SDS011;62183;49.006;12.102;2022-08-21T01:39:11;14.65;;;11.25;;
73840;SDS011;62183;49.006;12.102;2022-08-21T01:41:36;14.38;;;11.27;;
73840;SDS011;62183;49.006;12.102;2022-08-21T01:44:01;13.80;;;11.40;;
73840;SDS011;62183;49.006;12.102;2022-08-21T01:46:27;14.50;;;11.63;;
73840;SDS011;62183;49.006;12.102;2022-08-21T01:48:52;15.90;;;12.33;;
73840;SDS011;62183;49.006;12.102;2022-08-21T01:51:17;14.70;;;11.57;;
73840;SDS011;62183;49.006;12.102;2022-08-21T01:53:42;16.85;;;12.57;;
73840;SDS011;62183;49.006;12.102;2022-08-21T01:56:09;34.50;;;13.37;;
73840;SDS011;62183;49.006;12.102;2022-08-21T01:58:34;22.05;;;13.52;;
73840;SDS011;62183;49.006;12.102;2022-08-21T02:01:00;20.58;;;13.10;;
73840;SDS011;62183;49.006;12.102;2022-08-21T02:03:25;18.50;;;12.77;;
73840;SDS011;62183;49.006;12.102;2022-08-21T02:05:51;18.07;;;12.07;;
73840;SDS011;62183;49.006;12.102;2022-08-21T02:08:16;22.93;;;13.70;;
73840;SDS011;62183;49.006;12.102;2022-08-21T02:10:41;88.40;;;13.40;;
73840;SDS011;62183;49.006;12.102;2022-08-21T02:13:06;105.27;;;15.80;;
73840;SDS011;62183;49.006;12.102;2022-08-21T02:15:31;86.53;;;13.63;;
73840;SDS011;62183;49.006;12.102;2022-08-21T02:17:58;70.73;;;12.70;;
73840;SDS011;62183;49.006;12.102;2022-08-21T02:20:34;40.65;;;10.75;;
73840;SDS011;62183;49.006;12.102;2022-08-21T02:23:00;29.95;;;9.43;;
73840;SDS011;62183;49.006;12.102;2022-08-21T02:25:26;95.00;;;13.85;;
73840;SDS011;62183;49.006;12.102;2022-08-21T02:27:52;59.17;;;11.32;;
73840;SDS011;62183;49.006;12.102;2022-08-21T02:30:18;27.73;;;10.38;;
73840;SDS011;62183;49.006;12.102;2022-08-21T02:32:44;21.73;;;9.40;;
73840;SDS011;62183;49.006;12.102;2022-08-21T02:35:10;35.27;;;9.97;;
73840;SDS011;62183;49.006;12.102;2022-08-21T02:37:43;25.63;;;9.40;;
73840;SDS011;62183;49.006;12.102;2022-08-21T02:40:08;37.03;;;10.15;;
73840;SDS011;62183;49.006;12.102;2022-08-21T02:42:33;39.28;;;9.85;;
73840;SDS011;62183;49.006;12.102;2022-08-21T02:44:58;33.53;;;10.63;;
73840;SDS011;62183;49.006;12.102;2022-08-21T02:47:24;23.93;;;10.27;;
73840;SDS011;62183;49.006;12.102;2022-08-21T02:49:49;31.10;;;9.63;;
73840;SDS011;62183;49.006;12.102;2022-08-21T02:52:14;30.57;;;10.10;;
73840;SDS011;62183;49.006;12.102;2022-08-21T02:54:39;24.60;;;8.77;;
73840;SDS011;62183;49.006;12.102;2022-08-21T02:57:04;25.67;;;10.33;;
73840;SDS011;62183;49.006;12.102;2022-08-21T02:59:30;14.43;;;8.63;;
73840;SDS011;62183;49.006;12.102;2022-08-21T03:01:55;17.97;;;9.17;;
73840;SDS011;62183;49.006;12.102;2022-08-21T03:04:20;17.60;;;8.80;;
73840;SDS011;62183;49.006;12.102;2022-08-21T03:06:45;19.67;;;10.37;;
73840;SDS011;62183;49.006;12.102;2022-08-21T03:09:10;19.30;;;9.23;;
73840;SDS011;62183;49.006;12.102;2022-08-21T03:11:35;16.10;;;9.37;;
73840;SDS011;62183;49.006;12.102;2022-08-21T03:14:01;16.33;;;9.43;;
73840;SDS011;62183;49.006;12.102;2022-08-21T03:16:26;13.90;;;10.33;;
73840;SDS011;62183;49.006;12.102;2022-08-21T03:18:51;13.33;;;10.23;;
73840;SDS011;62183;49.006;12.102;2022-08-21T03:21:16;15.13;;;10.50;;
73840;SDS011;62183;49.006;12.102;2022-08-21T03:23:41;10.37;;;9.33;;
73840;SDS011;62183;49.006;12.102;2022-08-21T03:26:07;13.47;;;9.33;;
73840;SDS011;62183;49.006;12.102;2022-08-21T03:28:32;18.25;;;9.25;;
73840;SDS011;62183;49.006;12.102;2022-08-21T03:30:57;19.80;;;9.30;;
73840;SDS011;62183;49.006;12.102;2022-08-21T03:33:22;12.77;;;9.35;;
73840;SDS011;62183;49.006;12.102;2022-08-21T03:35:49;19.17;;;9.20;;
73840;SDS011;62183;49.006;12.102;2022-08-21T03:38:16;22.17;;;9.95;;
73840;SDS011;62183;49.006;12.102;2022-08-21T03:40:41;27.83;;;9.10;;
73840;SDS011;62183;49.006;12.102;2022-08-21T03:43:07;22.75;;;10.20;;
73840;SDS011;62183;49.006;12.102;2022-08-21T03:45:32;28.53;;;9.90;;
73840;SDS011;62183;49.006;12.102;2022-08-21T03:47:58;25.27;;;9.37;;
73840;SDS011;62183;49.006;12.102;2022-08-21T03:50:25;28.60;;;9.82;;
73840;SDS011;62183;49.006;12.102;2022-08-21T03:52:51;29.02;;;10.45;;
73840;SDS011;62183;49.006;12.102;2022-08-21T03:55:17;22.42;;;10.05;;
73840;SDS011;62183;49.006;12.102;2022-08-21T03:57:42;16.38;;;9.50;;
73840;SDS011;62183;49.006;12.102;2022-08-21T04:00:08;18.50;;;10.00;;
73840;SDS011;62183;49.006;12.102;2022-08-21T04:02:33;18.15;;;10.70;;
73840;SDS011;62183;49.006;12.102;2022-08-21T04:04:58;15.30;;;9.57;;
73840;SDS011;62183;49.006;12.102;2022-08-21T04:07:24;16.10;;;10.20;;
73840;SDS011;62183;49.006;12.102;2022-08-21T04:09:49;17.67;;;10.87;;
73840;SDS011;62183;49.006;12.102;2022-08-21T04:12:14;17.43;;;10.30;;
73840;SDS011;62183;49.006;12.102;2022-08-21T04:14:39;15.00;;;10.10;;
73840;SDS011;62183;49.006;12.102;2022-08-21T04:17:04;13.30;;;10.67;;
73840;SDS011;62183;49.006;12.102;2022-08-21T04:19:29;15.07;;;10.73;;
73840;SDS011;62183;49.006;12.102;2022-08-21T04:21:55;13.63;;;10.10;;
73840;SDS011;62183;49.006;12.102;2022-08-21T04:24:20;14.17;;;10.20;;
73840;SDS011;62183;49.006;12.102;2022-08-21T04:26:45;14.77;;;11.17;;
73840;SDS011;62183;49.006;12.102;2022-08-21T04:29:10;17.03;;;10.97;;
73840;SDS011;62183;49.006;12.102;2022-08-21T04:31:35;12.27;;;10.57;;
73840;SDS011;62183;49.006;12.102;2022-08-21T04:34:01;13.63;;;10.68;;
73840;SDS011;62183;49.006;12.102;2022-08-21T04:36:26;11.93;;;10.37;;
73840;SDS011;62183;49.006;12.102;2022-08-21T04:38:51;16.57;;;10.83;;
73840;SDS011;62183;49.006;12.102;2022-08-21T04:41:16;14.07;;;10.60;;
73840;SDS011;62183;49.006;12.102;2022-08-21T04:43:42;24.77;;;11.80;;
73840;SDS011;62183;49.006;12.102;2022-08-21T04:46:07;30.80;;;11.17;;
73840;SDS011;62183;49.006;12.102;2022-08-21T04:48:32;30.37;;;11.63;;
73840;SDS011;62183;49.006;12.102;2022-08-21T04:53:43;36.92;;;11.00;;
73840;SDS011;62183;49.006;12.102;2022-08-21T04:58:44;24.23;;;11.02;;
73840;SDS011;62183;49.006;12.102;2022-08-21T05:01:11;27.60;;;10.93;;
73840;SDS011;62183;49.006;12.102;2022-08-21T05:03:38;49.70;;;11.85;;
73840;SDS011;62183;49.006;12.102;2022-08-21T05:06:05;28.38;;;10.80;;
73840;SDS011;62183;49.006;12.102;2022-08-21T05:08:31;20.15;;;10.77;;
73840;SDS011;62183;49.006;12.102;2022-08-21T05:10:57;18.70;;;10.90;;
73840;SDS011;62183;49.006;12.102;2022-08-21T05:13:22;13.57;;;10.97;;
73840;SDS011;62183;49.006;12.102;2022-08-21T05:15:47;13.77;;;10.60;;
73840;SDS011;62183;49.006;12.102;2022-08-21T05:18:12;15.53;;;10.80;;
73840;SDS011;62183;49.006;12.102;2022-08-21T05:20:38;13.30;;;10.93;;
73840;SDS011;62183;49.006;12.102;2022-08-21T05:23:10;12.90;;;10.67;;
73840;SDS011;62183;49.006;12.102;2022-08-21T05:25:35;12.52;;;11.00;;
73840;SDS011;62183;49.006;12.102;2022-08-21T05:28:01;14.93;;;11.82;;
73840;SDS011;62183;49.006;12.102;2022-08-21T05:30:26;13.32;;;10.40;;
73840;SDS011;62183;49.006;12.102;2022-08-21T05:32:55;13.27;;;10.85;;
73840;SDS011;62183;49.006;12.102;2022-08-21T05:35:21;14.25;;;10.55;;
73840;SDS011;62183;49.006;12.102;2022-08-21T05:37:46;13.83;;;10.90;;
73840;SDS011;62183;49.006;12.102;2022-08-21T05:40:11;15.50;;;10.60;;
73840;SDS011;62183;49.006;12.102;2022-08-21T05:42:36;10.50;;;9.40;;
73840;SDS011;62183;49.006;12.102;2022-08-21T05:45:02;12.43;;;10.70;;
73840;SDS011;62183;49.006;12.102;2022-08-21T05:47:27;14.00;;;11.15;;
73840;SDS011;62183;49.006;12.102;2022-08-21T05:49:52;15.20;;;10.63;;
73840;SDS011;62183;49.006;12.102;2022-08-21T05:52:18;11.37;;;9.23;;
73840;SDS011;62183;49.006;12.102;2022-08-21T05:54:43;14.40;;;11.18;;
73840;SDS011;62183;49.006;12.102;2022-08-21T05:57:08;12.70;;;9.53;;
73840;SDS011;62183;49.006;12.102;2022-08-21T05:59:34;17.20;;;11.67;;
73840;SDS011;62183;49.006;12.102;2022-08-21T06:01:59;14.67;;;11.47;;
73840;SDS011;62183;49.006;12.102;2022-08-21T06:04:24;19.63;;;11.17;;
73840;SDS011;62183;49.006;12.102;2022-08-21T06:06:49;14.83;;;11.97;;
73840;SDS011;62183;49.006;12.102;2022-08-21T06:09:14;11.93;;;10.20;;
73840;SDS011;62183;49.006;12.102;2022-08-21T06:11:39;15.00;;;11.33;;
73840;SDS011;62183;49.006;12.102;2022-08-21T06:14:05;14.90;;;11.33;;
73840;SDS011;62183;49.006;12.102;2022-08-21T06:16:30;10.97;;;9.87;;
73840;SDS011;62183;49.006;12.102;2022-08-21T06:18:55;15.20;;;11.63;;
73840;SDS011;62183;49.006;12.102;2022-08-21T06:21:20;14.73;;;10.83;;
73840;SDS011;62183;49.006;12.102;2022-08-21T06:23:45;13.07;;;10.90;;
73840;SDS011;62183;49.006;12.102;2022-08-21T06:26:12;15.10;;;11.43;;
73840;SDS011;62183;49.006;12.102;2022-08-21T06:28:38;13.35;;;10.52;;
73840;SDS011;62183;49.006;12.102;2022-08-21T06:31:11;11.85;;;10.55;;
73840;SDS011;62183;49.006;12.102;2022-08-21T06:33:37;14.38;;;11.98;;
73840;SDS011;62183;49.006;12.102;2022-08-21T06:36:02;12.93;;;11.43;;
73840;SDS011;62183;49.006;12.102;2022-08-21T06:38:27;13.93;;;11.52;;
73840;SDS011;62183;49.006;12.102;2022-08-21T06:40:52;15.57;;;12.17;;
73840;SDS011;62183;49.006;12.102;2022-08-21T06:43:17;15.67;;;12.43;;
73840;SDS011;62183;49.006;12.102;2022-08-21T06:45:43;14.40;;;12.07;;
73840;SDS011;62183;49.006;12.102;2022-08-21T06:48:09;12.85;;;11.45;;
73840;SDS011;62183;49.006;12.102;2022-08-21T06:50:34;13.73;;;11.52;;
73840;SDS011;62183;49.006;12.102;2022-08-21T06:53:04;14.32;;;11.73;;
73840;SDS011;62183;49.006;12.102;2022-08-21T06:55:30;15.95;;;12.25;;
73840;SDS011;62183;49.006;12.102;2022-08-21T06:57:55;12.13;;;10.93;;
73840;SDS011;62183;49.006;12.102;2022-08-21T07:00:21;13.30;;;11.20;;
73840;SDS011;62183;49.006;12.102;2022-08-21T07:02:46;11.97;;;10.77;;
73840;SDS011;62183;49.006;12.102;2022-08-21T07:05:11;13.13;;;11.70;;
73840;SDS011;62183;49.006;12.102;2022-08-21T07:07:36;13.57;;;11.67;;
73840;SDS011;62183;49.006;12.102;2022-08-21T07:10:01;13.93;;;12.63;;
73840;SDS011;62183;49.006;12.102;2022-08-21T07:12:27;14.43;;;12.27;;
73840;SDS011;62183;49.006;12.102;2022-08-21T07:14:52;13.77;;;12.33;;
73840;SDS011;62183;49.006;12.102;2022-08-21T07:17:17;12.90;;;11.13;;
73840;SDS011;62183;49.006;12.102;2022-08-21T07:19:42;13.23;;;11.93;;
73840;SDS011;62183;49.006;12.102;2022-08-21T07:22:08;11.10;;;10.03;;
73840;SDS011;62183;49.006;12.102;2022-08-21T07:24:33;13.07;;;11.77;;
73840;SDS011;62183;49.006;12.102;2022-08-21T07:26:58;12.27;;;11.07;;
73840;SDS011;62183;49.006;12.102;2022-08-21T07:29:23;12.17;;;11.07;;
73840;SDS011;62183;49.006;12.102;2022-08-21T07:31:48;11.47;;;10.03;;
73840;SDS011;62183;49.006;12.102;2022-08-21T07:34:14;11.03;;;9.93;;
73840;SDS011;62183;49.006;12.102;2022-08-21T07:36:39;11.77;;;10.73;;
73840;SDS011;62183;49.006;12.102;2022-08-21T07:39:04;11.60;;;10.47;;
73840;SDS011;62183;49.006;12.102;2022-08-21T07:41:29;12.40;;;11.20;;
73840;SDS011;62183;49.006;12.102;2022-08-21T07:43:56;11.77;;;10.57;;
73840;SDS011;62183;49.006;12.102;2022-08-21T07:46:21;13.73;;;12.32;;
73840;SDS011;62183;49.006;12.102;2022-08-21T07:48:46;13.50;;;12.20;;
73840;SDS011;62183;49.006;12.102;2022-08-21T07:51:13;13.70;;;12.37;;
73840;SDS011;62183;49.006;12.102;2022-08-21T07:53:39;14.00;;;12.60;;
73840;SDS011;62183;49.006;12.102;2022-08-21T07:56:05;13.30;;;11.95;;
73840;SDS011;62183;49.006;12.102;2022-08-21T07:58:31;12.23;;;11.10;;
73840;SDS011;62183;49.006;12.102;2022-08-21T08:00:56;13.93;;;12.52;;
73840;SDS011;62183;49.006;12.102;2022-08-21T08:03:21;13.60;;;12.30;;
73840;SDS011;62183;49.006;12.102;2022-08-21T08:05:46;14.40;;;12.90;;
73840;SDS011;62183;49.006;12.102;2022-08-21T08:08:12;14.10;;;12.80;;
73840;SDS011;62183;49.006;12.102;2022-08-21T08:10:37;11.63;;;10.63;;
73840;SDS011;62183;49.006;12.102;2022-08-21T08:13:03;13.02;;;11.82;;
73840;SDS011;62183;49.006;12.102;2022-08-21T08:15:28;13.70;;;12.50;;
73840;SDS011;62183;49.006;12.102;2022-08-21T08:17:54;14.38;;;12.60;;
73840;SDS011;62183;49.006;12.102;2022-08-21T08:20:19;15.80;;;14.20;;
73840;SDS011;62183;49.006;12.102;2022-08-21T08:22:44;14.07;;;12.83;;
73840;SDS011;62183;49.006;12.102;2022-08-21T08:25:10;15.47;;;14.13;;
73840;SDS011;62183;49.006;12.102;2022-08-21T08:27:36;15.68;;;14.00;;
73840;SDS011;62183;49.006;12.102;2022-08-21T08:30:01;14.73;;;13.32;;
73840;SDS011;62183;49.006;12.102;2022-08-21T08:32:26;15.80;;;14.27;;
73840;SDS011;62183;49.006;12.102;2022-08-21T08:34:52;15.53;;;14.03;;
73840;SDS011;62183;49.006;12.102;2022-08-21T08:37:17;15.17;;;13.67;;
73840;SDS011;62183;49.006;12.102;2022-08-21T08:39:43;14.93;;;13.43;;
73840;SDS011;62183;49.006;12.102;2022-08-21T08:42:09;14.98;;;13.57;;
73840;SDS011;62183;49.006;12.102;2022-08-21T08:44:36;16.13;;;14.63;;
73840;SDS011;62183;49.006;12.102;2022-08-21T08:47:02;14.55;;;13.25;;
73840;SDS011;62183;49.006;12.102;2022-08-21T08:52:00;15.93;;;14.32;;
73840;SDS011;62183;49.006;12.102;2022-08-21T08:54:34;15.40;;;14.07;;
73840;SDS011;62183;49.006;12.102;2022-08-21T08:57:01;14.88;;;13.57;;
73840;SDS011;62183;49.006;12.102;2022-08-21T08:59:28;15.48;;;13.88;;
73840;SDS011;62183;49.006;12.102;2022-08-21T09:01:56;16.08;;;14.52;;
73840;SDS011;62183;49.006;12.102;2022-08-21T09:04:25;15.43;;;14.03;;
73840;SDS011;62183;49.006;12.102;2022-08-21T09:09:29;16.73;;;15.20;;
73840;SDS011;62183;49.006;12.102;2022-08-21T09:12:03;15.38;;;14.02;;
73840;SDS011;62183;49.006;12.102;2022-08-21T09:20:46;15.97;;;14.53;;
73840;SDS011;62183;49.006;12.102;2022-08-21T09:22:39;17.10;;;15.60;;
73840;SDS011;62183;49.006;12.102;2022-08-21T09:27:32;15.67;;;14.37;;
73840;SDS011;62183;49.006;12.102;2022-08-21T09:29:57;15.33;;;13.93;;
73840;SDS011;62183;49.006;12.102;2022-08-21T09:35:08;16.85;;;15.32;;
73840;SDS011;62183;49.006;12.102;2022-08-21T09:37:35;16.77;;;15.25;;
73840;SDS011;62183;49.006;12.102;2022-08-21T09:40:01;15.43;;;14.13;;
73840;SDS011;62183;49.006;12.102;2022-08-21T09:42:28;16.60;;;15.00;;
73840;SDS011;62183;49.006;12.102;2022-08-21T09:45:09;16.75;;;15.10;;
73840;SDS011;62183;49.006;12.102;2022-08-21T09:47:34;17.00;;;15.40;;
73840;SDS011;62183;49.006;12.102;2022-08-21T09:50:10;17.13;;;15.63;;
73840;SDS011;62183;49.006;12.102;2022-08-21T09:52:41;17.48;;;15.77;;
73840;SDS011;62183;49.006;12.102;2022-08-21T09:55:07;18.35;;;16.60;;
73840;SDS011;62183;49.006;12.102;2022-08-21T09:57:39;17.92;;;16.27;;
73840;SDS011;62183;49.006;12.102;2022-08-21T10:02:42;17.30;;;15.80;;
73840;SDS011;62183;49.006;12.102;2022-08-21T10:05:21;19.07;;;17.33;;
73840;SDS011;62183;49.006;12.102;2022-08-21T10:07:46;18.63;;;17.02;;
73840;SDS011;62183;49.006;12.102;2022-08-21T10:10:23;18.37;;;16.77;;
73840;SDS011;62183;49.006;12.102;2022-08-21T10:12:49;21.20;;;19.02;;
73840;SDS011;62183;49.006;12.102;2022-08-21T10:18:35;20.20;;;18.48;;
73840;SDS011;62183;49.006;12.102;2022-08-21T10:34:15;20.38;;;18.67;;
73840;SDS011;62183;49.006;12.102;2022-08-21T10:39:30;21.30;;;19.40;;
73840;SDS011;62183;49.006;12.102;2022-08-21T10:42:05;20.67;;;18.90;;
73840;SDS011;62183;49.006;12.102;2022-08-21T10:44:41;19.45;;;17.80;;
73840;SDS011;62183;49.006;12.102;2022-08-21T10:47:12;23.02;;;21.00;;
73840;SDS011;62183;49.006;12.102;2022-08-21T10:54:51;23.40;;;21.40;;
73840;SDS011;62183;49.006;12.102;2022-08-21T10:57:21;22.05;;;20.05;;
73840;SDS011;62183;49.006;12.102;2022-08-21T10:59:49;22.35;;;20.35;;
73840;SDS011;62183;49.006;12.102;2022-08-21T11:02:19;20.30;;;18.60;;
73840;SDS011;62183;49.006;12.102;2022-08-21T11:07:34;22.15;;;20.15;;
73840;SDS011;62183;49.006;12.102;2022-08-21T11:13:01;22.83;;;20.83;;
73840;SDS011;62183;49.006;12.102;2022-08-21T11:15:48;22.08;;;20.17;;
73840;SDS011;62183;49.006;12.102;2022-08-21T11:23:28;21.65;;;19.75;;
73840;SDS011;62183;49.006;12.102;2022-08-21T11:25:58;19.83;;;18.13;;
73840;SDS011;62183;49.006;12.102;2022-08-21T11:28:26;20.55;;;18.83;;
73840;SDS011;62183;49.006;12.102;2022-08-21T11:30:59;21.20;;;19.38;;
73840;SDS011;62183;49.006;12.102;2022-08-21T11:36:05;22.13;;;20.13;;
73840;SDS011;62183;49.006;12.102;2022-08-21T11:43:32;19.27;;;17.37;;
73840;SDS011;62183;49.006;12.102;2022-08-21T11:46:02;20.05;;;18.13;;
73840;SDS011;62183;49.006;12.102;2022-08-21T11:50:56;19.67;;;17.98;;
73840;SDS011;62183;49.006;12.102;2022-08-21T11:53:28;19.73;;;18.02;;
73840;SDS011;62183;49.006;12.102;2022-08-21T11:56:00;20.92;;;19.10;;
73840;SDS011;62183;49.006;12.102;2022-08-21T11:58:28;19.92;;;18.13;;
73840;SDS011;62183;49.006;12.102;2022-08-21T12:01:03;20.90;;;18.90;;
73840;SDS011;62183;49.006;12.102;2022-08-21T12:03:34;18.27;;;16.77;;
73840;SDS011;62183;49.006;12.102;2022-08-21T12:06:01;18.27;;;16.77;;
73840;SDS011;62183;49.006;12.102;2022-08-21T12:11:22;18.55;;;17.05;;
73840;SDS011;62183;49.006;12.102;2022-08-21T12:14:11;18.48;;;16.98;;
73840;SDS011;62183;49.006;12.102;2022-08-21T12:16:37;18.13;;;16.63;;
73840;SDS011;62183;49.006;12.102;2022-08-21T12:19:04;19.50;;;17.75;;
73840;SDS011;62183;49.006;12.102;2022-08-21T12:21:29;18.42;;;16.75;;
73840;SDS011;62183;49.006;12.102;2022-08-21T12:24:03;18.40;;;16.80;;
73840;SDS011;62183;49.006;12.102;2022-08-21T12:26:35;17.83;;;16.42;;
73840;SDS011;62183;49.006;12.102;2022-08-21T12:29:11;16.75;;;15.43;;
73840;SDS011;62183;49.006;12.102;2022-08-21T12:31:36;16.25;;;14.95;;
73840;SDS011;62183;49.006;12.102;2022-08-21T12:34:12;16.85;;;15.55;;
73840;SDS011;62183;49.006;12.102;2022-08-21T12:36:41;16.25;;;14.95;;
73840;SDS011;62183;49.006;12.102;2022-08-21T12:39:11;16.15;;;14.75;;
73840;SDS011;62183;49.006;12.102;2022-08-21T12:41:42;15.07;;;13.88;;
73840;SDS011;62183;49.006;12.102;2022-08-21T12:44:16;14.32;;;13.27;;
73840;SDS011;62183;49.006;12.102;2022-08-21T12:46:45;15.05;;;13.88;;
73840;SDS011;62183;49.006;12.102;2022-08-21T12:51:48;13.70;;;12.73;;
73840;SDS011;62183;49.006;12.102;2022-08-21T12:54:22;14.07;;;13.07;;
73840;SDS011;62183;49.006;12.102;2022-08-21T12:56:55;14.05;;;12.90;;
73840;SDS011;62183;49.006;12.102;2022-08-21T12:59:20;13.65;;;12.75;;
73840;SDS011;62183;49.006;12.102;2022-08-21T13:01:46;12.80;;;11.93;;
73840;SDS011;62183;49.006;12.102;2022-08-21T13:04:13;12.65;;;11.82;;
73840;SDS011;62183;49.006;12.102;2022-08-21T13:06:41;12.82;;;11.93;;
73840;SDS011;62183;49.006;12.102;2022-08-21T13:09:10;12.80;;;11.90;;
73840;SDS011;62183;49.006;12.102;2022-08-21T13:11:35;12.68;;;11.88;;
73840;SDS011;62183;49.006;12.102;2022-08-21T13:14:02;12.48;;;11.52;;
73840;SDS011;62183;49.006;12.102;2022-08-21T13:16:28;11.82;;;11.13;;
73840;SDS011;62183;49.006;12.102;2022-08-21T13:18:58;11.90;;;11.10;;
73840;SDS011;62183;49.006;12.102;2022-08-21T13:21:31;12.43;;;11.63;;
73840;SDS011;62183;49.006;12.102;2022-08-21T13:26:40;13.25;;;12.30;;
73840;SDS011;62183;49.006;12.102;2022-08-21T13:29:06;12.07;;;11.35;;
73840;SDS011;62183;49.006;12.102;2022-08-21T13:31:32;11.65;;;10.90;;
73840;SDS011;62183;49.006;12.102;2022-08-21T13:33:57;11.20;;;10.60;;
73840;SDS011;62183;49.006;12.102;2022-08-21T13:36:26;11.60;;;10.80;;
73840;SDS011;62183;49.006;12.102;2022-08-21T13:38:54;12.02;;;11.35;;
73840;SDS011;62183;49.006;12.102;2022-08-21T13:43:46;12.20;;;11.50;;
73840;SDS011;62183;49.006;12.102;2022-08-21T13:46:11;12.23;;;11.52;;
73840;SDS011;62183;49.006;12.102;2022-08-21T13:48:37;11.90;;;11.20;;
73840;SDS011;62183;49.006;12.102;2022-08-21T13:51:03;12.98;;;12.18;;
73840;SDS011;62183;49.006;12.102;2022-08-21T13:53:30;12.48;;;11.68;;
73840;SDS011;62183;49.006;12.102;2022-08-21T13:55:56;13.00;;;12.20;;
73840;SDS011;62183;49.006;12.102;2022-08-21T13:58:25;12.75;;;11.95;;
73840;SDS011;62183;49.006;12.102;2022-08-21T14:00:51;12.50;;;11.70;;
73840;SDS011;62183;49.006;12.102;2022-08-21T14:03:36;12.55;;;11.75;;
73840;SDS011;62183;49.006;12.102;2022-08-21T14:06:10;12.93;;;11.98;;
73840;SDS011;62183;49.006;12.102;2022-08-21T14:08:39;13.00;;;12.18;;
73840;SDS011;62183;49.006;12.102;2022-08-21T14:11:05;12.88;;;12.18;;
73840;SDS011;62183;49.006;12.102;2022-08-21T14:13:35;13.07;;;12.25;;
73840;SDS011;62183;49.006;12.102;2022-08-21T14:16:01;12.75;;;11.95;;
73840;SDS011;62183;49.006;12.102;2022-08-21T14:18:27;12.23;;;11.43;;
73840;SDS011;62183;49.006;12.102;2022-08-21T14:21:05;12.90;;;12.10;;
73840;SDS011;62183;49.006;12.102;2022-08-21T14:23:31;12.55;;;11.75;;
73840;SDS011;62183;49.006;12.102;2022-08-21T14:25:58;13.40;;;12.40;;
73840;SDS011;62183;49.006;12.102;2022-08-21T14:28:25;13.13;;;12.18;;
73840;SDS011;62183;49.006;12.102;2022-08-21T14:30:51;12.23;;;11.50;;
73840;SDS011;62183;49.006;12.102;2022-08-21T14:35:51;12.60;;;11.90;;
73840;SDS011;62183;49.006;12.102;2022-08-21T14:38:18;12.30;;;11.60;;
73840;SDS011;62183;49.006;12.102;2022-08-21T14:40:43;12.25;;;11.55;;
73840;SDS011;62183;49.006;12.102;2022-08-21T14:43:10;12.23;;;11.52;;
73840;SDS011;62183;49.006;12.102;2022-08-21T14:45:35;13.07;;;12.27;;
73840;SDS011;62183;49.006;12.102;2022-08-21T14:48:01;12.87;;;12.07;;
73840;SDS011;62183;49.006;12.102;2022-08-21T14:50:26;13.10;;;12.30;;
73840;SDS011;62183;49.006;12.102;2022-08-21T14:52:51;13.30;;;12.37;;
73840;SDS011;62183;49.006;12.102;2022-08-21T14:55:17;13.00;;;12.20;;
73840;SDS011;62183;49.006;12.102;2022-08-21T14:57:50;12.77;;;11.98;;
73840;SDS011;62183;49.006;12.102;2022-08-21T15:00:17;12.77;;;12.02;;
73840;SDS011;62183;49.006;12.102;2022-08-21T15:02:43;13.23;;;12.32;;
73840;SDS011;62183;49.006;12.102;2022-08-21T15:05:09;13.10;;;12.30;;
73840;SDS011;62183;49.006;12.102;2022-08-21T15:07:34;12.60;;;11.90;;
73840;SDS011;62183;49.006;12.102;2022-08-21T15:09:59;12.33;;;11.60;;
73840;SDS011;62183;49.006;12.102;2022-08-21T15:12:24;12.60;;;11.80;;
73840;SDS011;62183;49.006;12.102;2022-08-21T15:14:50;13.13;;;12.32;;
73840;SDS011;62183;49.006;12.102;2022-08-21T15:17:15;13.00;;;12.20;;
73840;SDS011;62183;49.006;12.102;2022-08-21T15:19:40;12.35;;;11.65;;
73840;SDS011;62183;49.006;12.102;2022-08-21T15:22:06;12.23;;;11.52;;
73840;SDS011;62183;49.006;12.102;2022-08-21T15:24:31;12.38;;;11.63;;
73840;SDS011;62183;49.006;12.102;2022-08-21T15:26:58;12.20;;;11.50;;
73840;SDS011;62183;49.006;12.102;2022-08-21T15:29:23;12.43;;;11.52;;
73840;SDS011;62183;49.006;12.102;2022-08-21T15:31:54;12.37;;;11.67;;